Terminal Aerodrome Forecast
Issued by NWS

Current Version | Previous Version | Graphics & Text | Print | Product List | Glossary On
Versions: 1 2 3 4 5 6 7 8 9 10 11 12 13 14 15 16 17 18 19 20
566
FTUS41 KPBZ 010533 AAA
TAFHLG
TAF AMD
KHLG 010533Z 0106/0206 27010G20KT P6SM SCT035
     FM010800 24012KT P6SM OVC025
     FM011400 25013G21KT P6SM OVC025
     FM020100 26009KT P6SM OVC035=

USA.gov is the U.S. government's official web portal to all federal, state and local government web resources and services.